sensor_id;sensor_type;location;lat;lon;timestamp;P1;durP1;ratioP1;P2;durP2;ratioP2
66175;SDS011;52977;44.816;20.538;2022-11-21T00:00:30;29.63;;;11.75;;
66175;SDS011;52977;44.816;20.538;2022-11-21T00:02:58;28.95;;;12.27;;
66175;SDS011;52977;44.816;20.538;2022-11-21T00:05:28;28.17;;;10.80;;
66175;SDS011;52977;44.816;20.538;2022-11-21T00:07:55;33.90;;;11.45;;
66175;SDS011;52977;44.816;20.538;2022-11-21T00:10:22;32.97;;;11.32;;
66175;SDS011;52977;44.816;20.538;2022-11-21T00:12:55;28.48;;;10.93;;
66175;SDS011;52977;44.816;20.538;2022-11-21T00:15:23;31.02;;;11.35;;
66175;SDS011;52977;44.816;20.538;2022-11-21T00:17:51;31.65;;;10.80;;
66175;SDS011;52977;44.816;20.538;2022-11-21T00:20:18;27.55;;;10.77;;
66175;SDS011;52977;44.816;20.538;2022-11-21T00:22:45;31.75;;;11.85;;
66175;SDS011;52977;44.816;20.538;2022-11-21T00:25:12;31.50;;;10.95;;
66175;SDS011;52977;44.816;20.538;2022-11-21T00:27:38;27.98;;;10.30;;
66175;SDS011;52977;44.816;20.538;2022-11-21T00:30:04;28.65;;;11.30;;
66175;SDS011;52977;44.816;20.538;2022-11-21T00:32:31;32.17;;;10.88;;
66175;SDS011;52977;44.816;20.538;2022-11-21T00:34:58;30.42;;;11.35;;
66175;SDS011;52977;44.816;20.538;2022-11-21T00:37:23;30.48;;;10.90;;
66175;SDS011;52977;44.816;20.538;2022-11-21T00:39:49;29.17;;;10.98;;
66175;SDS011;52977;44.816;20.538;2022-11-21T00:42:16;24.55;;;10.60;;
66175;SDS011;52977;44.816;20.538;2022-11-21T00:44:42;28.40;;;11.07;;
66175;SDS011;52977;44.816;20.538;2022-11-21T00:47:08;28.50;;;11.02;;
66175;SDS011;52977;44.816;20.538;2022-11-21T00:49:34;33.35;;;12.90;;
66175;SDS011;52977;44.816;20.538;2022-11-21T00:52:00;29.02;;;11.43;;
66175;SDS011;52977;44.816;20.538;2022-11-21T00:54:27;31.63;;;11.55;;
66175;SDS011;52977;44.816;20.538;2022-11-21T00:56:53;30.85;;;11.88;;
66175;SDS011;52977;44.816;20.538;2022-11-21T00:59:19;35.17;;;12.02;;
66175;SDS011;52977;44.816;20.538;2022-11-21T01:01:45;28.83;;;10.82;;
66175;SDS011;52977;44.816;20.538;2022-11-21T01:04:12;28.83;;;10.50;;
66175;SDS011;52977;44.816;20.538;2022-11-21T01:06:38;27.75;;;10.63;;
66175;SDS011;52977;44.816;20.538;2022-11-21T01:09:04;31.33;;;11.15;;
66175;SDS011;52977;44.816;20.538;2022-11-21T01:11:31;29.27;;;11.27;;
66175;SDS011;52977;44.816;20.538;2022-11-21T01:13:57;31.25;;;12.63;;
66175;SDS011;52977;44.816;20.538;2022-11-21T01:16:24;29.02;;;10.43;;
66175;SDS011;52977;44.816;20.538;2022-11-21T01:18:52;30.00;;;10.35;;
66175;SDS011;52977;44.816;20.538;2022-11-21T01:21:22;30.23;;;11.35;;
66175;SDS011;52977;44.816;20.538;2022-11-21T01:23:50;26.08;;;10.63;;
66175;SDS011;52977;44.816;20.538;2022-11-21T01:26:18;32.92;;;12.68;;
66175;SDS011;52977;44.816;20.538;2022-11-21T01:28:46;26.10;;;10.68;;
66175;SDS011;52977;44.816;20.538;2022-11-21T01:31:22;28.63;;;11.40;;
66175;SDS011;52977;44.816;20.538;2022-11-21T01:33:53;33.45;;;12.15;;
66175;SDS011;52977;44.816;20.538;2022-11-21T01:36:22;36.58;;;12.20;;
66175;SDS011;52977;44.816;20.538;2022-11-21T01:38:51;32.42;;;11.88;;
66175;SDS011;52977;44.816;20.538;2022-11-21T01:41:23;31.20;;;12.35;;
66175;SDS011;52977;44.816;20.538;2022-11-21T01:43:51;33.08;;;11.98;;
66175;SDS011;52977;44.816;20.538;2022-11-21T01:46:18;30.45;;;12.13;;
66175;SDS011;52977;44.816;20.538;2022-11-21T01:51:31;37.22;;;13.48;;
66175;SDS011;52977;44.816;20.538;2022-11-21T01:57:24;31.48;;;12.00;;
66175;SDS011;52977;44.816;20.538;2022-11-21T01:59:56;29.45;;;12.40;;
66175;SDS011;52977;44.816;20.538;2022-11-21T02:02:34;32.63;;;12.20;;
66175;SDS011;52977;44.816;20.538;2022-11-21T02:05:05;31.95;;;12.80;;
66175;SDS011;52977;44.816;20.538;2022-11-21T02:07:33;28.80;;;12.52;;
66175;SDS011;52977;44.816;20.538;2022-11-21T02:10:04;37.72;;;13.00;;
66175;SDS011;52977;44.816;20.538;2022-11-21T02:12:33;35.42;;;13.80;;
66175;SDS011;52977;44.816;20.538;2022-11-21T02:15:18;33.60;;;13.50;;
66175;SDS011;52977;44.816;20.538;2022-11-21T02:17:47;32.53;;;13.57;;
66175;SDS011;52977;44.816;20.538;2022-11-21T02:20:14;38.53;;;13.05;;
66175;SDS011;52977;44.816;20.538;2022-11-21T02:25:18;36.03;;;13.68;;
66175;SDS011;52977;44.816;20.538;2022-11-21T02:27:47;30.48;;;11.73;;
66175;SDS011;52977;44.816;20.538;2022-11-21T02:30:15;27.80;;;11.68;;
66175;SDS011;52977;44.816;20.538;2022-11-21T02:32:43;34.42;;;13.48;;
66175;SDS011;52977;44.816;20.538;2022-11-21T02:35:12;37.33;;;13.82;;
66175;SDS011;52977;44.816;20.538;2022-11-21T02:37:40;40.92;;;14.27;;
66175;SDS011;52977;44.816;20.538;2022-11-21T02:40:11;38.08;;;14.40;;
66175;SDS011;52977;44.816;20.538;2022-11-21T02:42:45;35.55;;;13.80;;
66175;SDS011;52977;44.816;20.538;2022-11-21T02:47:53;34.30;;;13.35;;
66175;SDS011;52977;44.816;20.538;2022-11-21T02:52:49;33.38;;;12.52;;
66175;SDS011;52977;44.816;20.538;2022-11-21T02:55:15;32.40;;;12.43;;
66175;SDS011;52977;44.816;20.538;2022-11-21T02:57:42;39.33;;;14.13;;
66175;SDS011;52977;44.816;20.538;2022-11-21T03:00:08;34.10;;;13.73;;
66175;SDS011;52977;44.816;20.538;2022-11-21T03:02:36;39.83;;;14.60;;
66175;SDS011;52977;44.816;20.538;2022-11-21T03:05:03;35.53;;;13.82;;
66175;SDS011;52977;44.816;20.538;2022-11-21T03:07:31;35.25;;;13.38;;
66175;SDS011;52977;44.816;20.538;2022-11-21T03:09:57;37.15;;;13.63;;
66175;SDS011;52977;44.816;20.538;2022-11-21T03:12:23;37.83;;;14.88;;
66175;SDS011;52977;44.816;20.538;2022-11-21T03:14:49;40.67;;;14.73;;
66175;SDS011;52977;44.816;20.538;2022-11-21T03:17:15;36.20;;;14.25;;
66175;SDS011;52977;44.816;20.538;2022-11-21T03:19:42;39.58;;;15.32;;
66175;SDS011;52977;44.816;20.538;2022-11-21T03:22:08;41.22;;;15.07;;
66175;SDS011;52977;44.816;20.538;2022-11-21T03:24:35;43.35;;;15.80;;
66175;SDS011;52977;44.816;20.538;2022-11-21T03:27:01;42.63;;;15.68;;
66175;SDS011;52977;44.816;20.538;2022-11-21T03:29:27;37.38;;;15.48;;
66175;SDS011;52977;44.816;20.538;2022-11-21T03:31:53;35.70;;;15.02;;
66175;SDS011;52977;44.816;20.538;2022-11-21T03:34:20;45.72;;;15.00;;
66175;SDS011;52977;44.816;20.538;2022-11-21T03:36:46;42.47;;;15.95;;
66175;SDS011;52977;44.816;20.538;2022-11-21T03:39:12;35.60;;;14.15;;
66175;SDS011;52977;44.816;20.538;2022-11-21T03:41:38;45.50;;;14.52;;
66175;SDS011;52977;44.816;20.538;2022-11-21T03:44:05;40.65;;;15.63;;
66175;SDS011;52977;44.816;20.538;2022-11-21T03:46:36;39.07;;;15.13;;
66175;SDS011;52977;44.816;20.538;2022-11-21T03:49:04;43.35;;;14.52;;
66175;SDS011;52977;44.816;20.538;2022-11-21T03:51:31;38.58;;;13.55;;
66175;SDS011;52977;44.816;20.538;2022-11-21T03:53:57;42.35;;;14.30;;
66175;SDS011;52977;44.816;20.538;2022-11-21T03:56:23;38.10;;;14.82;;
66175;SDS011;52977;44.816;20.538;2022-11-21T03:58:50;45.45;;;15.70;;
66175;SDS011;52977;44.816;20.538;2022-11-21T04:01:16;38.30;;;13.73;;
66175;SDS011;52977;44.816;20.538;2022-11-21T04:03:43;38.65;;;14.90;;
66175;SDS011;52977;44.816;20.538;2022-11-21T04:06:10;43.35;;;15.45;;
66175;SDS011;52977;44.816;20.538;2022-11-21T04:08:38;44.42;;;15.13;;
66175;SDS011;52977;44.816;20.538;2022-11-21T04:11:04;42.15;;;15.45;;
66175;SDS011;52977;44.816;20.538;2022-11-21T04:13:31;42.92;;;17.30;;
66175;SDS011;52977;44.816;20.538;2022-11-21T04:15:57;41.00;;;15.10;;
66175;SDS011;52977;44.816;20.538;2022-11-21T04:18:23;37.55;;;15.32;;
66175;SDS011;52977;44.816;20.538;2022-11-21T04:20:59;41.13;;;15.45;;
66175;SDS011;52977;44.816;20.538;2022-11-21T04:23:30;39.55;;;15.63;;
66175;SDS011;52977;44.816;20.538;2022-11-21T04:25:57;42.47;;;16.08;;
66175;SDS011;52977;44.816;20.538;2022-11-21T04:28:23;41.42;;;14.55;;
66175;SDS011;52977;44.816;20.538;2022-11-21T04:30:49;42.95;;;16.05;;
66175;SDS011;52977;44.816;20.538;2022-11-21T04:33:15;41.78;;;14.73;;
66175;SDS011;52977;44.816;20.538;2022-11-21T04:35:42;42.15;;;15.23;;
66175;SDS011;52977;44.816;20.538;2022-11-21T04:38:08;46.30;;;16.20;;
66175;SDS011;52977;44.816;20.538;2022-11-21T04:40:34;45.53;;;15.88;;
66175;SDS011;52977;44.816;20.538;2022-11-21T04:43:00;43.92;;;15.90;;
66175;SDS011;52977;44.816;20.538;2022-11-21T04:45:26;38.95;;;15.18;;
66175;SDS011;52977;44.816;20.538;2022-11-21T04:47:51;46.05;;;15.63;;
66175;SDS011;52977;44.816;20.538;2022-11-21T04:50:18;45.35;;;15.90;;
66175;SDS011;52977;44.816;20.538;2022-11-21T04:52:48;39.58;;;15.02;;
66175;SDS011;52977;44.816;20.538;2022-11-21T04:55:16;41.97;;;15.73;;
66175;SDS011;52977;44.816;20.538;2022-11-21T04:57:43;43.53;;;15.38;;
66175;SDS011;52977;44.816;20.538;2022-11-21T05:00:09;45.53;;;15.40;;
66175;SDS011;52977;44.816;20.538;2022-11-21T05:02:35;43.80;;;16.20;;
66175;SDS011;52977;44.816;20.538;2022-11-21T05:05:02;41.90;;;14.82;;
66175;SDS011;52977;44.816;20.538;2022-11-21T05:07:28;40.38;;;15.07;;
66175;SDS011;52977;44.816;20.538;2022-11-21T05:09:53;39.33;;;15.27;;
66175;SDS011;52977;44.816;20.538;2022-11-21T05:12:19;43.40;;;15.85;;
66175;SDS011;52977;44.816;20.538;2022-11-21T05:15:03;42.58;;;15.82;;
66175;SDS011;52977;44.816;20.538;2022-11-21T05:17:30;40.80;;;14.57;;
66175;SDS011;52977;44.816;20.538;2022-11-21T05:19:56;42.85;;;14.88;;
66175;SDS011;52977;44.816;20.538;2022-11-21T05:22:22;36.65;;;14.38;;
66175;SDS011;52977;44.816;20.538;2022-11-21T05:24:48;40.72;;;14.73;;
66175;SDS011;52977;44.816;20.538;2022-11-21T05:27:14;43.90;;;15.05;;
66175;SDS011;52977;44.816;20.538;2022-11-21T05:29:40;39.67;;;16.05;;
66175;SDS011;52977;44.816;20.538;2022-11-21T05:32:07;44.65;;;15.73;;
66175;SDS011;52977;44.816;20.538;2022-11-21T05:34:33;40.42;;;14.48;;
66175;SDS011;52977;44.816;20.538;2022-11-21T05:36:59;40.20;;;15.18;;
66175;SDS011;52977;44.816;20.538;2022-11-21T05:39:25;38.88;;;14.85;;
66175;SDS011;52977;44.816;20.538;2022-11-21T05:41:52;39.28;;;15.35;;
66175;SDS011;52977;44.816;20.538;2022-11-21T05:44:18;37.78;;;14.75;;
66175;SDS011;52977;44.816;20.538;2022-11-21T05:46:44;37.38;;;14.95;;
66175;SDS011;52977;44.816;20.538;2022-11-21T05:49:11;41.92;;;14.55;;
66175;SDS011;52977;44.816;20.538;2022-11-21T05:51:37;45.70;;;15.88;;
66175;SDS011;52977;44.816;20.538;2022-11-21T05:54:03;41.88;;;15.55;;
66175;SDS011;52977;44.816;20.538;2022-11-21T05:56:30;39.80;;;15.35;;
66175;SDS011;52977;44.816;20.538;2022-11-21T05:58:57;38.67;;;13.90;;
66175;SDS011;52977;44.816;20.538;2022-11-21T06:01:23;39.63;;;14.95;;
66175;SDS011;52977;44.816;20.538;2022-11-21T06:04:09;40.13;;;14.90;;
66175;SDS011;52977;44.816;20.538;2022-11-21T06:06:35;44.08;;;15.20;;
66175;SDS011;52977;44.816;20.538;2022-11-21T06:09:02;36.60;;;14.60;;
66175;SDS011;52977;44.816;20.538;2022-11-21T06:11:29;43.55;;;14.43;;
66175;SDS011;52977;44.816;20.538;2022-11-21T06:13:55;39.13;;;15.15;;
66175;SDS011;52977;44.816;20.538;2022-11-21T06:16:21;41.47;;;14.73;;
66175;SDS011;52977;44.816;20.538;2022-11-21T06:18:49;37.25;;;14.77;;
66175;SDS011;52977;44.816;20.538;2022-11-21T06:23:46;41.63;;;14.40;;
66175;SDS011;52977;44.816;20.538;2022-11-21T06:26:16;41.10;;;15.90;;
66175;SDS011;52977;44.816;20.538;2022-11-21T06:28:44;39.90;;;14.57;;
66175;SDS011;52977;44.816;20.538;2022-11-21T06:31:21;37.30;;;13.73;;
66175;SDS011;52977;44.816;20.538;2022-11-21T06:33:52;35.88;;;14.38;;
66175;SDS011;52977;44.816;20.538;2022-11-21T06:36:19;38.03;;;14.30;;
66175;SDS011;52977;44.816;20.538;2022-11-21T06:38:45;37.58;;;15.15;;
66175;SDS011;52977;44.816;20.538;2022-11-21T06:41:16;42.70;;;16.23;;
66175;SDS011;52977;44.816;20.538;2022-11-21T06:43:45;40.33;;;15.77;;
66175;SDS011;52977;44.816;20.538;2022-11-21T06:46:11;37.60;;;14.10;;
66175;SDS011;52977;44.816;20.538;2022-11-21T06:48:38;38.53;;;14.38;;
66175;SDS011;52977;44.816;20.538;2022-11-21T06:51:11;42.75;;;16.55;;
66175;SDS011;52977;44.816;20.538;2022-11-21T06:53:41;40.97;;;15.38;;
66175;SDS011;52977;44.816;20.538;2022-11-21T06:56:07;41.97;;;16.27;;
66175;SDS011;52977;44.816;20.538;2022-11-21T06:58:33;42.35;;;15.65;;
66175;SDS011;52977;44.816;20.538;2022-11-21T07:01:06;44.05;;;16.00;;
66175;SDS011;52977;44.816;20.538;2022-11-21T07:03:34;34.85;;;14.35;;
66175;SDS011;52977;44.816;20.538;2022-11-21T07:06:01;42.10;;;15.77;;
66175;SDS011;52977;44.816;20.538;2022-11-21T07:08:28;40.53;;;16.63;;
66175;SDS011;52977;44.816;20.538;2022-11-21T07:10:56;39.30;;;15.65;;
66175;SDS011;52977;44.816;20.538;2022-11-21T07:13:25;40.78;;;15.50;;
66175;SDS011;52977;44.816;20.538;2022-11-21T07:15:53;40.95;;;15.30;;
66175;SDS011;52977;44.816;20.538;2022-11-21T07:18:25;34.53;;;14.32;;
66175;SDS011;52977;44.816;20.538;2022-11-21T07:20:53;40.97;;;16.60;;
66175;SDS011;52977;44.816;20.538;2022-11-21T07:23:23;40.67;;;15.57;;
66175;SDS011;52977;44.816;20.538;2022-11-21T07:25:49;34.60;;;14.05;;
66175;SDS011;52977;44.816;20.538;2022-11-21T07:28:16;36.45;;;14.27;;
66175;SDS011;52977;44.816;20.538;2022-11-21T07:30:42;36.00;;;15.07;;
66175;SDS011;52977;44.816;20.538;2022-11-21T07:33:08;39.85;;;16.00;;
66175;SDS011;52977;44.816;20.538;2022-11-21T07:35:34;37.78;;;15.80;;
66175;SDS011;52977;44.816;20.538;2022-11-21T07:38:00;40.67;;;15.60;;
66175;SDS011;52977;44.816;20.538;2022-11-21T07:40:26;44.72;;;16.13;;
66175;SDS011;52977;44.816;20.538;2022-11-21T07:42:53;36.95;;;14.85;;
66175;SDS011;52977;44.816;20.538;2022-11-21T07:45:19;39.17;;;14.90;;
66175;SDS011;52977;44.816;20.538;2022-11-21T07:47:45;37.95;;;15.60;;
66175;SDS011;52977;44.816;20.538;2022-11-21T07:50:12;44.05;;;15.18;;
66175;SDS011;52977;44.816;20.538;2022-11-21T07:52:38;35.65;;;12.60;;
66175;SDS011;52977;44.816;20.538;2022-11-21T07:55:04;47.70;;;16.00;;
66175;SDS011;52977;44.816;20.538;2022-11-21T07:57:31;51.70;;;18.42;;
66175;SDS011;52977;44.816;20.538;2022-11-21T07:59:58;46.65;;;17.83;;
66175;SDS011;52977;44.816;20.538;2022-11-21T08:02:25;42.72;;;15.82;;
66175;SDS011;52977;44.816;20.538;2022-11-21T08:04:53;40.03;;;15.95;;
66175;SDS011;52977;44.816;20.538;2022-11-21T08:07:20;33.72;;;13.60;;
66175;SDS011;52977;44.816;20.538;2022-11-21T08:09:47;33.70;;;13.95;;
66175;SDS011;52977;44.816;20.538;2022-11-21T08:12:14;38.42;;;14.32;;
66175;SDS011;52977;44.816;20.538;2022-11-21T08:14:40;37.90;;;14.80;;
66175;SDS011;52977;44.816;20.538;2022-11-21T08:17:07;33.13;;;13.27;;
66175;SDS011;52977;44.816;20.538;2022-11-21T08:19:33;33.70;;;13.25;;
66175;SDS011;52977;44.816;20.538;2022-11-21T08:21:59;34.47;;;13.05;;
66175;SDS011;52977;44.816;20.538;2022-11-21T08:24:26;39.35;;;14.43;;
66175;SDS011;52977;44.816;20.538;2022-11-21T08:26:52;35.47;;;13.02;;
66175;SDS011;52977;44.816;20.538;2022-11-21T08:29:18;29.27;;;12.75;;
66175;SDS011;52977;44.816;20.538;2022-11-21T08:31:44;33.92;;;13.70;;
66175;SDS011;52977;44.816;20.538;2022-11-21T08:34:11;32.03;;;13.45;;
66175;SDS011;52977;44.816;20.538;2022-11-21T08:36:37;33.60;;;13.75;;
66175;SDS011;52977;44.816;20.538;2022-11-21T08:39:04;38.50;;;14.05;;
66175;SDS011;52977;44.816;20.538;2022-11-21T08:41:30;40.10;;;15.25;;
66175;SDS011;52977;44.816;20.538;2022-11-21T08:44:14;35.80;;;13.98;;
66175;SDS011;52977;44.816;20.538;2022-11-21T08:46:40;32.22;;;13.75;;
66175;SDS011;52977;44.816;20.538;2022-11-21T08:49:06;32.65;;;14.13;;
66175;SDS011;52977;44.816;20.538;2022-11-21T08:51:33;33.38;;;14.88;;
66175;SDS011;52977;44.816;20.538;2022-11-21T08:54:00;35.55;;;14.55;;
66175;SDS011;52977;44.816;20.538;2022-11-21T08:56:27;33.90;;;13.38;;
66175;SDS011;52977;44.816;20.538;2022-11-21T08:58:53;31.75;;;13.52;;
66175;SDS011;52977;44.816;20.538;2022-11-21T09:01:20;32.17;;;13.77;;
66175;SDS011;52977;44.816;20.538;2022-11-21T09:03:47;39.28;;;14.55;;
66175;SDS011;52977;44.816;20.538;2022-11-21T09:06:13;35.08;;;14.00;;
66175;SDS011;52977;44.816;20.538;2022-11-21T09:08:39;32.03;;;14.60;;
66175;SDS011;52977;44.816;20.538;2022-11-21T09:11:06;35.67;;;14.50;;
66175;SDS011;52977;44.816;20.538;2022-11-21T09:13:34;35.15;;;14.18;;
66175;SDS011;52977;44.816;20.538;2022-11-21T09:16:01;34.72;;;14.43;;
66175;SDS011;52977;44.816;20.538;2022-11-21T09:18:46;39.50;;;14.27;;
66175;SDS011;52977;44.816;20.538;2022-11-21T09:21:16;30.15;;;12.57;;
66175;SDS011;52977;44.816;20.538;2022-11-21T09:23:43;30.02;;;12.60;;
66175;SDS011;52977;44.816;20.538;2022-11-21T09:26:10;30.67;;;11.93;;
66175;SDS011;52977;44.816;20.538;2022-11-21T09:28:36;30.30;;;13.05;;
66175;SDS011;52977;44.816;20.538;2022-11-21T09:31:03;31.85;;;12.48;;
66175;SDS011;52977;44.816;20.538;2022-11-21T09:33:30;33.83;;;13.52;;
66175;SDS011;52977;44.816;20.538;2022-11-21T09:35:57;38.38;;;13.95;;
66175;SDS011;52977;44.816;20.538;2022-11-21T09:38:24;33.95;;;12.95;;
66175;SDS011;52977;44.816;20.538;2022-11-21T09:40:52;32.28;;;13.32;;
66175;SDS011;52977;44.816;20.538;2022-11-21T09:43:55;33.58;;;13.48;;
66175;SDS011;52977;44.816;20.538;2022-11-21T09:46:32;30.83;;;12.75;;
66175;SDS011;52977;44.816;20.538;2022-11-21T09:49:08;33.33;;;12.48;;
66175;SDS011;52977;44.816;20.538;2022-11-21T09:51:38;34.05;;;13.27;;
66175;SDS011;52977;44.816;20.538;2022-11-21T09:54:12;28.83;;;12.70;;
66175;SDS011;52977;44.816;20.538;2022-11-21T09:56:48;34.28;;;13.32;;
66175;SDS011;52977;44.816;20.538;2022-11-21T10:01:57;35.92;;;12.98;;
66175;SDS011;52977;44.816;20.538;2022-11-21T10:04:24;36.28;;;14.27;;
66175;SDS011;52977;44.816;20.538;2022-11-21T10:15:38;31.55;;;12.70;;
66175;SDS011;52977;44.816;20.538;2022-11-21T10:18:54;27.10;;;11.70;;
66175;SDS011;52977;44.816;20.538;2022-11-21T10:25:29;31.60;;;12.65;;
66175;SDS011;52977;44.816;20.538;2022-11-21T10:27:44;32.88;;;11.93;;
66175;SDS011;52977;44.816;20.538;2022-11-21T10:30:18;28.10;;;11.02;;
66175;SDS011;52977;44.816;20.538;2022-11-21T10:32:52;32.30;;;12.45;;
66175;SDS011;52977;44.816;20.538;2022-11-21T10:35:34;26.77;;;10.63;;
66175;SDS011;52977;44.816;20.538;2022-11-21T10:38:12;27.30;;;11.15;;
66175;SDS011;52977;44.816;20.538;2022-11-21T10:40:43;28.52;;;11.50;;
66175;SDS011;52977;44.816;20.538;2022-11-21T10:46:24;30.35;;;11.93;;
66175;SDS011;52977;44.816;20.538;2022-11-21T10:49:00;28.60;;;12.23;;
66175;SDS011;52977;44.816;20.538;2022-11-21T10:54:22;27.10;;;12.05;;
66175;SDS011;52977;44.816;20.538;2022-11-21T10:57:11;29.67;;;11.70;;
66175;SDS011;52977;44.816;20.538;2022-11-21T10:59:40;28.75;;;11.75;;
66175;SDS011;52977;44.816;20.538;2022-11-21T11:02:23;27.63;;;10.88;;
66175;SDS011;52977;44.816;20.538;2022-11-21T11:07:41;32.28;;;12.75;;
66175;SDS011;52977;44.816;20.538;2022-11-21T11:10:23;32.88;;;13.43;;
66175;SDS011;52977;44.816;20.538;2022-11-21T11:12:49;28.52;;;11.25;;
66175;SDS011;52977;44.816;20.538;2022-11-21T11:15:35;34.40;;;12.73;;
66175;SDS011;52977;44.816;20.538;2022-11-21T11:18:04;26.55;;;10.85;;
66175;SDS011;52977;44.816;20.538;2022-11-21T11:20:43;26.20;;;10.65;;
66175;SDS011;52977;44.816;20.538;2022-11-21T11:25:49;25.58;;;10.05;;
66175;SDS011;52977;44.816;20.538;2022-11-21T11:28:17;25.67;;;10.52;;
66175;SDS011;52977;44.816;20.538;2022-11-21T11:30:45;33.97;;;11.50;;
66175;SDS011;52977;44.816;20.538;2022-11-21T11:33:26;27.25;;;10.88;;
66175;SDS011;52977;44.816;20.538;2022-11-21T11:36:02;28.23;;;11.00;;
66175;SDS011;52977;44.816;20.538;2022-11-21T11:38:52;26.00;;;11.13;;
66175;SDS011;52977;44.816;20.538;2022-11-21T11:47:55;27.02;;;11.45;;
66175;SDS011;52977;44.816;20.538;2022-11-21T11:53:00;29.65;;;11.05;;
66175;SDS011;52977;44.816;20.538;2022-11-21T11:55:53;24.92;;;11.60;;
66175;SDS011;52977;44.816;20.538;2022-11-21T12:01:00;25.20;;;10.52;;
66175;SDS011;52977;44.816;20.538;2022-11-21T12:06:23;24.90;;;10.98;;
66175;SDS011;52977;44.816;20.538;2022-11-21T12:08:55;23.50;;;9.63;;
66175;SDS011;52977;44.816;20.538;2022-11-21T12:11:32;23.35;;;9.85;;
66175;SDS011;52977;44.816;20.538;2022-11-21T12:14:34;28.08;;;11.50;;
66175;SDS011;52977;44.816;20.538;2022-11-21T12:17:20;20.83;;;10.13;;
66175;SDS011;52977;44.816;20.538;2022-11-21T12:19:55;25.17;;;10.55;;
66175;SDS011;52977;44.816;20.538;2022-11-21T12:22:23;21.88;;;9.95;;
66175;SDS011;52977;44.816;20.538;2022-11-21T12:24:49;27.13;;;9.95;;
66175;SDS011;52977;44.816;20.538;2022-11-21T12:27:26;23.35;;;9.73;;
66175;SDS011;52977;44.816;20.538;2022-11-21T12:45:32;29.90;;;11.85;;
66175;SDS011;52977;44.816;20.538;2022-11-21T12:54:14;29.88;;;12.75;;
66175;SDS011;52977;44.816;20.538;2022-11-21T12:57:12;28.52;;;12.52;;
66175;SDS011;52977;44.816;20.538;2022-11-21T13:05:44;30.65;;;12.43;;
66175;SDS011;52977;44.816;20.538;2022-11-21T13:08:15;28.30;;;12.45;;
66175;SDS011;52977;44.816;20.538;2022-11-21T13:11:27;26.38;;;11.63;;
66175;SDS011;52977;44.816;20.538;2022-11-21T13:19:53;20.92;;;9.55;;
66175;SDS011;52977;44.816;20.538;2022-11-21T13:27:54;19.35;;;8.77;;
66175;SDS011;52977;44.816;20.538;2022-11-21T13:30:46;19.17;;;8.73;;
66175;SDS011;52977;44.816;20.538;2022-11-21T13:36:11;22.27;;;9.30;;
66175;SDS011;52977;44.816;20.538;2022-11-21T13:44:28;19.95;;;8.05;;
66175;SDS011;52977;44.816;20.538;2022-11-21T13:46:58;21.63;;;9.02;;
66175;SDS011;52977;44.816;20.538;2022-11-21T14:06:04;19.85;;;9.23;;
66175;SDS011;52977;44.816;20.538;2022-11-21T14:08:33;24.60;;;8.75;;
66175;SDS011;52977;44.816;20.538;2022-11-21T14:11:01;21.80;;;9.20;;
66175;SDS011;52977;44.816;20.538;2022-11-21T14:13:54;20.98;;;8.50;;
66175;SDS011;52977;44.816;20.538;2022-11-21T14:16:29;27.98;;;10.27;;
66175;SDS011;52977;44.816;20.538;2022-11-21T14:19:10;19.60;;;9.10;;
66175;SDS011;52977;44.816;20.538;2022-11-21T14:21:39;21.60;;;10.20;;
66175;SDS011;52977;44.816;20.538;2022-11-21T14:24:11;23.25;;;9.38;;
66175;SDS011;52977;44.816;20.538;2022-11-21T14:26:43;21.67;;;9.35;;
66175;SDS011;52977;44.816;20.538;2022-11-21T14:29:19;21.85;;;8.57;;
66175;SDS011;52977;44.816;20.538;2022-11-21T14:31:51;19.65;;;8.68;;
66175;SDS011;52977;44.816;20.538;2022-11-21T14:34:24;22.20;;;8.77;;
66175;SDS011;52977;44.816;20.538;2022-11-21T14:36:56;21.80;;;8.30;;
66175;SDS011;52977;44.816;20.538;2022-11-21T14:39:28;22.05;;;9.00;;
66175;SDS011;52977;44.816;20.538;2022-11-21T14:41:58;21.00;;;8.52;;
66175;SDS011;52977;44.816;20.538;2022-11-21T14:44:27;21.83;;;8.65;;
66175;SDS011;52977;44.816;20.538;2022-11-21T14:49:38;21.40;;;8.63;;
66175;SDS011;52977;44.816;20.538;2022-11-21T14:54:59;21.98;;;9.05;;
66175;SDS011;52977;44.816;20.538;2022-11-21T14:57:37;21.45;;;9.52;;
66175;SDS011;52977;44.816;20.538;2022-11-21T15:00:07;21.08;;;8.90;;
66175;SDS011;52977;44.816;20.538;2022-11-21T15:02:36;20.83;;;9.07;;
66175;SDS011;52977;44.816;20.538;2022-11-21T15:05:04;27.20;;;9.23;;
66175;SDS011;52977;44.816;20.538;2022-11-21T15:07:42;21.52;;;10.27;;
66175;SDS011;52977;44.816;20.538;2022-11-21T15:10:13;21.73;;;8.57;;
66175;SDS011;52977;44.816;20.538;2022-11-21T15:15:27;22.98;;;8.45;;
66175;SDS011;52977;44.816;20.538;2022-11-21T15:17:58;19.05;;;8.73;;
66175;SDS011;52977;44.816;20.538;2022-11-21T15:20:26;23.40;;;8.60;;
66175;SDS011;52977;44.816;20.538;2022-11-21T15:22:55;23.33;;;8.90;;
66175;SDS011;52977;44.816;20.538;2022-11-21T15:25:29;25.65;;;9.73;;
66175;SDS011;52977;44.816;20.538;2022-11-21T15:28:16;17.95;;;8.27;;
66175;SDS011;52977;44.816;20.538;2022-11-21T15:30:43;24.13;;;9.23;;
66175;SDS011;52977;44.816;20.538;2022-11-21T15:33:51;22.83;;;8.52;;
66175;SDS011;52977;44.816;20.538;2022-11-21T15:36:22;18.58;;;8.20;;
66175;SDS011;52977;44.816;20.538;2022-11-21T15:38:49;20.77;;;8.68;;
66175;SDS011;52977;44.816;20.538;2022-11-21T15:41:27;18.27;;;7.45;;
66175;SDS011;52977;44.816;20.538;2022-11-21T15:44:14;18.55;;;8.07;;
66175;SDS011;52977;44.816;20.538;2022-11-21T15:46:44;22.95;;;9.70;;
66175;SDS011;52977;44.816;20.538;2022-11-21T15:49:11;21.63;;;9.20;;
66175;SDS011;52977;44.816;20.538;2022-11-21T15:51:42;20.05;;;9.18;;
66175;SDS011;52977;44.816;20.538;2022-11-21T15:54:14;20.67;;;8.98;;
66175;SDS011;52977;44.816;20.538;2022-11-21T15:56:42;23.45;;;9.13;;
66175;SDS011;52977;44.816;20.538;2022-11-21T15:59:08;22.88;;;9.95;;
66175;SDS011;52977;44.816;20.538;2022-11-21T16:01:35;27.40;;;10.48;;
66175;SDS011;52977;44.816;20.538;2022-11-21T16:04:03;23.80;;;10.45;;
66175;SDS011;52977;44.816;20.538;2022-11-21T16:06:30;28.50;;;11.60;;
66175;SDS011;52977;44.816;20.538;2022-11-21T16:08:57;25.13;;;11.40;;
66175;SDS011;52977;44.816;20.538;2022-11-21T16:11:24;23.10;;;10.23;;
66175;SDS011;52977;44.816;20.538;2022-11-21T16:13:53;24.00;;;11.73;;
66175;SDS011;52977;44.816;20.538;2022-11-21T16:16:21;24.67;;;11.25;;
66175;SDS011;52977;44.816;20.538;2022-11-21T16:18:49;31.42;;;11.95;;
66175;SDS011;52977;44.816;20.538;2022-11-21T16:21:15;26.00;;;11.70;;
66175;SDS011;52977;44.816;20.538;2022-11-21T16:23:41;27.48;;;11.40;;
66175;SDS011;52977;44.816;20.538;2022-11-21T16:26:08;24.45;;;11.43;;
66175;SDS011;52977;44.816;20.538;2022-11-21T16:28:36;24.85;;;11.57;;
66175;SDS011;52977;44.816;20.538;2022-11-21T16:31:04;25.55;;;11.80;;
66175;SDS011;52977;44.816;20.538;2022-11-21T16:33:31;30.05;;;12.02;;
66175;SDS011;52977;44.816;20.538;2022-11-21T16:35:58;25.30;;;11.05;;